sensor_id;sensor_type;location;lat;lon;timestamp;P1;durP1;ratioP1;P2;durP2;ratioP2
68633;SDS011;55625;47.072;22.192;2022-11-15T00:00:52;13.97;;;5.63;;
68633;SDS011;55625;47.072;22.192;2022-11-15T00:03:20;9.10;;;4.60;;
68633;SDS011;55625;47.072;22.192;2022-11-15T00:05:51;10.98;;;5.13;;
68633;SDS011;55625;47.072;22.192;2022-11-15T00:08:17;12.25;;;4.68;;
68633;SDS011;55625;47.072;22.192;2022-11-15T00:10:54;15.18;;;6.13;;
68633;SDS011;55625;47.072;22.192;2022-11-15T00:13:24;10.50;;;6.43;;
68633;SDS011;55625;47.072;22.192;2022-11-15T00:15:50;9.15;;;3.85;;
68633;SDS011;55625;47.072;22.192;2022-11-15T00:18:17;7.63;;;3.50;;
68633;SDS011;55625;47.072;22.192;2022-11-15T00:20:43;9.57;;;5.00;;
68633;SDS011;55625;47.072;22.192;2022-11-15T00:23:09;7.90;;;5.07;;
68633;SDS011;55625;47.072;22.192;2022-11-15T00:25:35;7.73;;;4.13;;
68633;SDS011;55625;47.072;22.192;2022-11-15T00:28:01;9.95;;;5.22;;
68633;SDS011;55625;47.072;22.192;2022-11-15T00:30:27;7.15;;;4.28;;
68633;SDS011;55625;47.072;22.192;2022-11-15T00:32:53;10.65;;;4.28;;
68633;SDS011;55625;47.072;22.192;2022-11-15T00:35:20;12.43;;;5.57;;
68633;SDS011;55625;47.072;22.192;2022-11-15T00:37:46;13.35;;;6.55;;
68633;SDS011;55625;47.072;22.192;2022-11-15T00:40:13;10.32;;;5.25;;
68633;SDS011;55625;47.072;22.192;2022-11-15T00:42:40;15.73;;;7.53;;
68633;SDS011;55625;47.072;22.192;2022-11-15T00:45:06;14.00;;;7.68;;
68633;SDS011;55625;47.072;22.192;2022-11-15T00:47:33;9.20;;;4.43;;
68633;SDS011;55625;47.072;22.192;2022-11-15T00:49:59;9.82;;;4.95;;
68633;SDS011;55625;47.072;22.192;2022-11-15T00:52:25;12.30;;;6.18;;
68633;SDS011;55625;47.072;22.192;2022-11-15T00:54:51;13.13;;;4.90;;
68633;SDS011;55625;47.072;22.192;2022-11-15T00:57:16;10.63;;;4.55;;
68633;SDS011;55625;47.072;22.192;2022-11-15T00:59:42;12.40;;;5.20;;
68633;SDS011;55625;47.072;22.192;2022-11-15T01:02:08;7.50;;;3.27;;
68633;SDS011;55625;47.072;22.192;2022-11-15T01:04:34;8.82;;;3.22;;
68633;SDS011;55625;47.072;22.192;2022-11-15T01:06:59;7.13;;;4.00;;
68633;SDS011;55625;47.072;22.192;2022-11-15T01:09:25;5.85;;;2.88;;
68633;SDS011;55625;47.072;22.192;2022-11-15T01:11:51;7.60;;;2.70;;
68633;SDS011;55625;47.072;22.192;2022-11-15T01:14:17;6.23;;;3.83;;
68633;SDS011;55625;47.072;22.192;2022-11-15T01:16:43;5.45;;;2.47;;
68633;SDS011;55625;47.072;22.192;2022-11-15T01:19:09;17.48;;;3.28;;
68633;SDS011;55625;47.072;22.192;2022-11-15T01:21:35;4.87;;;2.50;;
68633;SDS011;55625;47.072;22.192;2022-11-15T01:24:00;10.50;;;5.68;;
68633;SDS011;55625;47.072;22.192;2022-11-15T01:26:26;6.53;;;3.58;;
68633;SDS011;55625;47.072;22.192;2022-11-15T01:28:52;10.27;;;4.63;;
68633;SDS011;55625;47.072;22.192;2022-11-15T01:31:19;12.45;;;4.90;;
68633;SDS011;55625;47.072;22.192;2022-11-15T01:33:47;5.63;;;2.35;;
68633;SDS011;55625;47.072;22.192;2022-11-15T01:36:18;12.40;;;3.90;;
68633;SDS011;55625;47.072;22.192;2022-11-15T01:38:56;9.17;;;4.50;;
68633;SDS011;55625;47.072;22.192;2022-11-15T01:41:31;11.52;;;3.83;;
68633;SDS011;55625;47.072;22.192;2022-11-15T01:47:21;9.80;;;3.03;;
68633;SDS011;55625;47.072;22.192;2022-11-15T01:50:00;4.93;;;2.03;;
68633;SDS011;55625;47.072;22.192;2022-11-15T01:52:33;5.60;;;3.17;;
68633;SDS011;55625;47.072;22.192;2022-11-15T01:57:34;12.00;;;4.35;;
68633;SDS011;55625;47.072;22.192;2022-11-15T02:00:00;7.18;;;2.60;;
68633;SDS011;55625;47.072;22.192;2022-11-15T02:02:29;7.85;;;3.92;;
68633;SDS011;55625;47.072;22.192;2022-11-15T02:04:55;4.47;;;2.23;;
68633;SDS011;55625;47.072;22.192;2022-11-15T02:07:21;7.97;;;3.20;;
68633;SDS011;55625;47.072;22.192;2022-11-15T02:09:47;4.65;;;2.15;;
68633;SDS011;55625;47.072;22.192;2022-11-15T02:12:15;9.68;;;2.85;;
68633;SDS011;55625;47.072;22.192;2022-11-15T02:14:46;5.35;;;3.08;;
68633;SDS011;55625;47.072;22.192;2022-11-15T02:20:20;7.70;;;4.03;;
68633;SDS011;55625;47.072;22.192;2022-11-15T02:31:58;12.30;;;2.43;;
68633;SDS011;55625;47.072;22.192;2022-11-15T02:37:40;7.65;;;3.00;;
68633;SDS011;55625;47.072;22.192;2022-11-15T02:43:18;4.90;;;2.60;;
68633;SDS011;55625;47.072;22.192;2022-11-15T02:46:14;4.27;;;1.57;;
68633;SDS011;55625;47.072;22.192;2022-11-15T02:49:45;5.18;;;2.72;;
68633;SDS011;55625;47.072;22.192;2022-11-15T02:52:21;7.07;;;3.60;;
68633;SDS011;55625;47.072;22.192;2022-11-15T02:54:54;6.53;;;3.28;;
68633;SDS011;55625;47.072;22.192;2022-11-15T03:00:25;5.87;;;3.50;;
68633;SDS011;55625;47.072;22.192;2022-11-15T03:12:07;4.82;;;2.72;;
68633;SDS011;55625;47.072;22.192;2022-11-15T03:14:59;3.97;;;2.50;;
68633;SDS011;55625;47.072;22.192;2022-11-15T03:17:47;5.00;;;2.03;;
68633;SDS011;55625;47.072;22.192;2022-11-15T03:20:21;3.70;;;2.35;;
68633;SDS011;55625;47.072;22.192;2022-11-15T03:22:51;6.75;;;3.22;;
68633;SDS011;55625;47.072;22.192;2022-11-15T03:25:22;6.97;;;2.50;;
68633;SDS011;55625;47.072;22.192;2022-11-15T03:27:51;9.27;;;3.07;;
68633;SDS011;55625;47.072;22.192;2022-11-15T03:30:20;7.32;;;3.50;;
68633;SDS011;55625;47.072;22.192;2022-11-15T03:32:56;5.25;;;2.70;;
68633;SDS011;55625;47.072;22.192;2022-11-15T03:35:24;5.18;;;2.38;;
68633;SDS011;55625;47.072;22.192;2022-11-15T03:40:33;8.30;;;4.60;;
68633;SDS011;55625;47.072;22.192;2022-11-15T03:46:14;4.18;;;2.13;;
68633;SDS011;55625;47.072;22.192;2022-11-15T03:48:52;6.28;;;3.13;;
68633;SDS011;55625;47.072;22.192;2022-11-15T03:51:25;5.88;;;3.63;;
68633;SDS011;55625;47.072;22.192;2022-11-15T03:53:51;4.83;;;2.37;;
68633;SDS011;55625;47.072;22.192;2022-11-15T03:56:17;8.57;;;4.35;;
68633;SDS011;55625;47.072;22.192;2022-11-15T03:58:43;3.90;;;1.75;;
68633;SDS011;55625;47.072;22.192;2022-11-15T04:01:08;4.10;;;2.33;;
68633;SDS011;55625;47.072;22.192;2022-11-15T04:03:34;4.95;;;1.60;;
68633;SDS011;55625;47.072;22.192;2022-11-15T04:06:00;4.77;;;2.00;;
68633;SDS011;55625;47.072;22.192;2022-11-15T04:08:26;7.10;;;2.60;;
68633;SDS011;55625;47.072;22.192;2022-11-15T04:10:51;7.22;;;1.80;;
68633;SDS011;55625;47.072;22.192;2022-11-15T04:13:17;4.23;;;2.17;;
68633;SDS011;55625;47.072;22.192;2022-11-15T04:15:43;4.70;;;2.78;;
68633;SDS011;55625;47.072;22.192;2022-11-15T04:18:09;6.20;;;2.22;;
68633;SDS011;55625;47.072;22.192;2022-11-15T04:20:35;4.03;;;2.57;;
68633;SDS011;55625;47.072;22.192;2022-11-15T04:23:20;8.85;;;3.13;;
68633;SDS011;55625;47.072;22.192;2022-11-15T04:26:13;11.32;;;4.82;;
68633;SDS011;55625;47.072;22.192;2022-11-15T04:28:42;5.15;;;2.15;;
68633;SDS011;55625;47.072;22.192;2022-11-15T04:31:27;4.10;;;2.53;;
68633;SDS011;55625;47.072;22.192;2022-11-15T04:33:53;6.22;;;2.72;;
68633;SDS011;55625;47.072;22.192;2022-11-15T04:36:19;6.95;;;2.72;;
68633;SDS011;55625;47.072;22.192;2022-11-15T04:39:04;8.30;;;3.10;;
68633;SDS011;55625;47.072;22.192;2022-11-15T04:41:30;6.63;;;2.35;;
68633;SDS011;55625;47.072;22.192;2022-11-15T04:43:56;10.03;;;4.00;;
68633;SDS011;55625;47.072;22.192;2022-11-15T04:46:22;5.82;;;2.63;;
68633;SDS011;55625;47.072;22.192;2022-11-15T04:48:49;3.60;;;1.83;;
68633;SDS011;55625;47.072;22.192;2022-11-15T04:51:16;4.07;;;2.10;;
68633;SDS011;55625;47.072;22.192;2022-11-15T04:53:42;9.10;;;4.30;;
68633;SDS011;55625;47.072;22.192;2022-11-15T04:56:08;7.57;;;3.00;;
68633;SDS011;55625;47.072;22.192;2022-11-15T04:58:34;5.07;;;2.58;;
68633;SDS011;55625;47.072;22.192;2022-11-15T05:01:12;9.20;;;3.80;;
68633;SDS011;55625;47.072;22.192;2022-11-15T05:03:40;4.17;;;2.43;;
68633;SDS011;55625;47.072;22.192;2022-11-15T05:06:25;3.28;;;1.50;;
68633;SDS011;55625;47.072;22.192;2022-11-15T05:08:51;5.10;;;3.17;;
68633;SDS011;55625;47.072;22.192;2022-11-15T05:11:17;13.20;;;5.18;;
68633;SDS011;55625;47.072;22.192;2022-11-15T05:13:43;13.40;;;6.00;;
68633;SDS011;55625;47.072;22.192;2022-11-15T05:16:09;9.77;;;4.40;;
68633;SDS011;55625;47.072;22.192;2022-11-15T05:18:35;9.97;;;2.93;;
68633;SDS011;55625;47.072;22.192;2022-11-15T05:21:04;7.88;;;4.00;;
68633;SDS011;55625;47.072;22.192;2022-11-15T05:23:34;6.55;;;3.58;;
68633;SDS011;55625;47.072;22.192;2022-11-15T05:26:01;13.38;;;4.90;;
68633;SDS011;55625;47.072;22.192;2022-11-15T05:28:29;12.33;;;6.07;;
68633;SDS011;55625;47.072;22.192;2022-11-15T05:31:02;5.65;;;3.00;;
68633;SDS011;55625;47.072;22.192;2022-11-15T05:33:29;17.23;;;6.03;;
68633;SDS011;55625;47.072;22.192;2022-11-15T05:36:20;5.35;;;2.95;;
68633;SDS011;55625;47.072;22.192;2022-11-15T05:39:06;5.30;;;2.80;;
68633;SDS011;55625;47.072;22.192;2022-11-15T05:44:09;8.27;;;3.40;;
68633;SDS011;55625;47.072;22.192;2022-11-15T05:46:38;4.50;;;2.15;;
68633;SDS011;55625;47.072;22.192;2022-11-15T05:49:06;6.15;;;3.45;;
68633;SDS011;55625;47.072;22.192;2022-11-15T05:51:35;9.45;;;4.00;;
68633;SDS011;55625;47.072;22.192;2022-11-15T05:54:01;8.23;;;4.17;;
68633;SDS011;55625;47.072;22.192;2022-11-15T05:56:28;5.35;;;2.72;;
68633;SDS011;55625;47.072;22.192;2022-11-15T05:58:55;6.30;;;3.22;;
68633;SDS011;55625;47.072;22.192;2022-11-15T06:01:23;6.63;;;3.67;;
68633;SDS011;55625;47.072;22.192;2022-11-15T06:03:51;5.72;;;2.65;;
68633;SDS011;55625;47.072;22.192;2022-11-15T06:06:17;7.53;;;2.63;;
68633;SDS011;55625;47.072;22.192;2022-11-15T06:08:43;6.38;;;2.45;;
68633;SDS011;55625;47.072;22.192;2022-11-15T06:11:09;2.90;;;1.53;;
68633;SDS011;55625;47.072;22.192;2022-11-15T06:13:34;9.18;;;1.52;;
68633;SDS011;55625;47.072;22.192;2022-11-15T06:16:00;5.60;;;2.78;;
68633;SDS011;55625;47.072;22.192;2022-11-15T06:18:26;7.13;;;3.20;;
68633;SDS011;55625;47.072;22.192;2022-11-15T06:20:52;6.50;;;2.42;;
68633;SDS011;55625;47.072;22.192;2022-11-15T06:23:18;6.63;;;4.20;;
68633;SDS011;55625;47.072;22.192;2022-11-15T06:25:44;8.52;;;3.10;;
68633;SDS011;55625;47.072;22.192;2022-11-15T06:28:10;8.47;;;3.33;;
68633;SDS011;55625;47.072;22.192;2022-11-15T06:30:35;12.80;;;3.10;;
68633;SDS011;55625;47.072;22.192;2022-11-15T06:33:02;10.70;;;5.07;;
68633;SDS011;55625;47.072;22.192;2022-11-15T06:35:30;8.30;;;4.40;;
68633;SDS011;55625;47.072;22.192;2022-11-15T06:38:05;7.95;;;4.38;;
68633;SDS011;55625;47.072;22.192;2022-11-15T06:40:34;8.75;;;3.88;;
68633;SDS011;55625;47.072;22.192;2022-11-15T06:43:02;6.65;;;3.60;;
68633;SDS011;55625;47.072;22.192;2022-11-15T06:45:29;6.35;;;3.67;;
68633;SDS011;55625;47.072;22.192;2022-11-15T06:47:55;8.80;;;4.20;;
68633;SDS011;55625;47.072;22.192;2022-11-15T06:50:22;8.50;;;4.18;;
68633;SDS011;55625;47.072;22.192;2022-11-15T06:52:48;7.60;;;4.78;;
68633;SDS011;55625;47.072;22.192;2022-11-15T06:55:14;9.00;;;5.27;;
68633;SDS011;55625;47.072;22.192;2022-11-15T06:57:50;12.23;;;4.27;;
68633;SDS011;55625;47.072;22.192;2022-11-15T07:00:17;6.88;;;3.20;;
68633;SDS011;55625;47.072;22.192;2022-11-15T07:02:45;10.38;;;5.45;;
68633;SDS011;55625;47.072;22.192;2022-11-15T07:05:12;9.32;;;3.47;;
68633;SDS011;55625;47.072;22.192;2022-11-15T07:07:39;10.68;;;4.18;;
68633;SDS011;55625;47.072;22.192;2022-11-15T07:10:05;18.70;;;4.53;;
68633;SDS011;55625;47.072;22.192;2022-11-15T07:12:32;17.92;;;4.50;;
68633;SDS011;55625;47.072;22.192;2022-11-15T07:14:58;6.65;;;3.30;;
68633;SDS011;55625;47.072;22.192;2022-11-15T07:17:24;9.38;;;5.43;;
68633;SDS011;55625;47.072;22.192;2022-11-15T07:19:49;6.53;;;4.30;;
68633;SDS011;55625;47.072;22.192;2022-11-15T07:22:16;13.02;;;5.70;;
68633;SDS011;55625;47.072;22.192;2022-11-15T07:24:42;10.35;;;5.72;;
68633;SDS011;55625;47.072;22.192;2022-11-15T07:27:08;13.70;;;5.60;;
68633;SDS011;55625;47.072;22.192;2022-11-15T07:29:34;12.10;;;6.35;;
68633;SDS011;55625;47.072;22.192;2022-11-15T07:32:00;10.05;;;4.32;;
68633;SDS011;55625;47.072;22.192;2022-11-15T07:34:25;14.33;;;5.67;;
68633;SDS011;55625;47.072;22.192;2022-11-15T07:36:51;9.43;;;3.85;;
68633;SDS011;55625;47.072;22.192;2022-11-15T07:39:17;11.93;;;5.27;;
68633;SDS011;55625;47.072;22.192;2022-11-15T07:41:43;12.55;;;4.78;;
68633;SDS011;55625;47.072;22.192;2022-11-15T07:44:09;16.27;;;4.07;;
68633;SDS011;55625;47.072;22.192;2022-11-15T07:46:35;8.50;;;4.10;;
68633;SDS011;55625;47.072;22.192;2022-11-15T07:49:01;8.73;;;4.47;;
68633;SDS011;55625;47.072;22.192;2022-11-15T07:51:26;25.25;;;4.47;;
68633;SDS011;55625;47.072;22.192;2022-11-15T07:53:52;8.47;;;4.47;;
68633;SDS011;55625;47.072;22.192;2022-11-15T07:56:18;6.68;;;3.25;;
68633;SDS011;55625;47.072;22.192;2022-11-15T07:58:45;13.45;;;4.35;;
68633;SDS011;55625;47.072;22.192;2022-11-15T08:01:11;9.43;;;4.13;;
68633;SDS011;55625;47.072;22.192;2022-11-15T08:03:38;6.65;;;4.05;;
68633;SDS011;55625;47.072;22.192;2022-11-15T08:06:04;10.30;;;5.88;;
68633;SDS011;55625;47.072;22.192;2022-11-15T08:08:30;13.95;;;6.25;;
68633;SDS011;55625;47.072;22.192;2022-11-15T08:10:59;12.40;;;4.17;;
68633;SDS011;55625;47.072;22.192;2022-11-15T08:13:25;10.68;;;4.93;;
68633;SDS011;55625;47.072;22.192;2022-11-15T08:15:52;11.32;;;4.40;;
68633;SDS011;55625;47.072;22.192;2022-11-15T08:18:24;16.77;;;4.05;;
68633;SDS011;55625;47.072;22.192;2022-11-15T08:20:50;19.20;;;6.77;;
68633;SDS011;55625;47.072;22.192;2022-11-15T08:23:15;17.27;;;6.53;;
68633;SDS011;55625;47.072;22.192;2022-11-15T08:25:41;16.50;;;5.55;;
68633;SDS011;55625;47.072;22.192;2022-11-15T08:28:09;7.80;;;3.73;;
68633;SDS011;55625;47.072;22.192;2022-11-15T08:30:39;23.50;;;4.88;;
68633;SDS011;55625;47.072;22.192;2022-11-15T08:33:12;12.40;;;5.97;;
68633;SDS011;55625;47.072;22.192;2022-11-15T08:35:39;6.80;;;3.22;;
68633;SDS011;55625;47.072;22.192;2022-11-15T08:38:07;16.02;;;7.95;;
68633;SDS011;55625;47.072;22.192;2022-11-15T08:40:33;7.80;;;5.00;;
68633;SDS011;55625;47.072;22.192;2022-11-15T08:42:59;9.65;;;4.28;;
68633;SDS011;55625;47.072;22.192;2022-11-15T08:45:27;7.47;;;2.97;;
68633;SDS011;55625;47.072;22.192;2022-11-15T08:47:56;11.02;;;3.45;;
68633;SDS011;55625;47.072;22.192;2022-11-15T08:50:22;6.88;;;2.90;;
68633;SDS011;55625;47.072;22.192;2022-11-15T08:52:48;7.37;;;3.43;;
68633;SDS011;55625;47.072;22.192;2022-11-15T08:55:14;7.50;;;2.97;;
68633;SDS011;55625;47.072;22.192;2022-11-15T08:57:40;11.90;;;4.50;;
68633;SDS011;55625;47.072;22.192;2022-11-15T09:00:06;7.80;;;3.10;;
68633;SDS011;55625;47.072;22.192;2022-11-15T09:02:33;8.10;;;3.78;;
68633;SDS011;55625;47.072;22.192;2022-11-15T09:04:58;13.18;;;4.40;;
68633;SDS011;55625;47.072;22.192;2022-11-15T09:07:24;7.27;;;3.40;;
68633;SDS011;55625;47.072;22.192;2022-11-15T09:09:50;17.33;;;3.97;;
68633;SDS011;55625;47.072;22.192;2022-11-15T09:12:16;8.90;;;2.58;;
68633;SDS011;55625;47.072;22.192;2022-11-15T09:14:42;6.77;;;2.90;;
68633;SDS011;55625;47.072;22.192;2022-11-15T09:17:08;10.40;;;4.43;;
68633;SDS011;55625;47.072;22.192;2022-11-15T09:19:34;6.97;;;3.05;;
68633;SDS011;55625;47.072;22.192;2022-11-15T09:22:01;8.88;;;3.67;;
68633;SDS011;55625;47.072;22.192;2022-11-15T09:24:31;11.17;;;3.90;;
68633;SDS011;55625;47.072;22.192;2022-11-15T09:26:56;5.80;;;3.28;;
68633;SDS011;55625;47.072;22.192;2022-11-15T09:29:22;8.07;;;3.72;;
68633;SDS011;55625;47.072;22.192;2022-11-15T09:31:48;10.50;;;4.27;;
68633;SDS011;55625;47.072;22.192;2022-11-15T09:34:16;14.07;;;4.53;;
68633;SDS011;55625;47.072;22.192;2022-11-15T09:36:42;8.07;;;3.17;;
68633;SDS011;55625;47.072;22.192;2022-11-15T09:39:08;11.75;;;4.40;;
68633;SDS011;55625;47.072;22.192;2022-11-15T09:50:15;12.40;;;5.97;;
68633;SDS011;55625;47.072;22.192;2022-11-15T09:53:25;15.25;;;4.35;;
68633;SDS011;55625;47.072;22.192;2022-11-15T09:56:02;14.03;;;4.90;;
68633;SDS011;55625;47.072;22.192;2022-11-15T10:04:30;9.20;;;3.60;;
68633;SDS011;55625;47.072;22.192;2022-11-15T10:06:59;10.00;;;4.65;;
68633;SDS011;55625;47.072;22.192;2022-11-15T10:13:06;7.38;;;3.25;;
68633;SDS011;55625;47.072;22.192;2022-11-15T10:15:44;8.18;;;3.80;;
68633;SDS011;55625;47.072;22.192;2022-11-15T10:20:49;7.25;;;2.78;;
68633;SDS011;55625;47.072;22.192;2022-11-15T10:23:22;8.27;;;4.37;;
68633;SDS011;55625;47.072;22.192;2022-11-15T10:25:52;7.50;;;3.03;;
68633;SDS011;55625;47.072;22.192;2022-11-15T10:28:27;7.85;;;3.35;;
68633;SDS011;55625;47.072;22.192;2022-11-15T10:30:56;7.25;;;3.47;;
68633;SDS011;55625;47.072;22.192;2022-11-15T10:41:14;8.73;;;2.72;;
68633;SDS011;55625;47.072;22.192;2022-11-15T10:44:02;9.27;;;3.33;;
68633;SDS011;55625;47.072;22.192;2022-11-15T10:46:32;11.95;;;5.18;;
68633;SDS011;55625;47.072;22.192;2022-11-15T10:54:44;9.48;;;4.25;;
68633;SDS011;55625;47.072;22.192;2022-11-15T10:57:27;11.50;;;4.18;;
68633;SDS011;55625;47.072;22.192;2022-11-15T10:59:58;14.00;;;2.25;;
68633;SDS011;55625;47.072;22.192;2022-11-15T11:04:58;13.63;;;4.22;;
68633;SDS011;55625;47.072;22.192;2022-11-15T11:07:30;9.95;;;4.63;;
68633;SDS011;55625;47.072;22.192;2022-11-15T11:12:44;9.93;;;4.85;;
68633;SDS011;55625;47.072;22.192;2022-11-15T11:15:14;9.90;;;4.10;;
68633;SDS011;55625;47.072;22.192;2022-11-15T11:23:29;10.55;;;2.92;;
68633;SDS011;55625;47.072;22.192;2022-11-15T11:29:32;18.23;;;4.07;;
68633;SDS011;55625;47.072;22.192;2022-11-15T11:35:19;18.13;;;2.97;;
68633;SDS011;55625;47.072;22.192;2022-11-15T11:40:44;8.17;;;3.37;;
68633;SDS011;55625;47.072;22.192;2022-11-15T11:49:11;10.10;;;2.97;;
68633;SDS011;55625;47.072;22.192;2022-11-15T11:51:43;14.68;;;2.70;;
68633;SDS011;55625;47.072;22.192;2022-11-15T11:54:48;8.37;;;2.97;;
68633;SDS011;55625;47.072;22.192;2022-11-15T11:57:28;8.45;;;3.67;;
68633;SDS011;55625;47.072;22.192;2022-11-15T12:00:19;12.07;;;4.03;;
68633;SDS011;55625;47.072;22.192;2022-11-15T12:03:02;9.93;;;3.25;;
68633;SDS011;55625;47.072;22.192;2022-11-15T12:05:59;10.60;;;3.65;;
68633;SDS011;55625;47.072;22.192;2022-11-15T12:09:05;8.23;;;4.20;;
68633;SDS011;55625;47.072;22.192;2022-11-15T12:11:50;11.18;;;4.57;;
68633;SDS011;55625;47.072;22.192;2022-11-15T12:14:45;11.80;;;4.10;;
68633;SDS011;55625;47.072;22.192;2022-11-15T12:17:34;8.23;;;3.58;;
68633;SDS011;55625;47.072;22.192;2022-11-15T12:20:04;8.85;;;3.30;;
68633;SDS011;55625;47.072;22.192;2022-11-15T12:23:04;14.90;;;4.00;;
68633;SDS011;55625;47.072;22.192;2022-11-15T12:31:02;12.23;;;3.95;;
68633;SDS011;55625;47.072;22.192;2022-11-15T12:33:55;9.32;;;3.58;;
68633;SDS011;55625;47.072;22.192;2022-11-15T12:41:17;61.60;;;25.73;;
68633;SDS011;55625;47.072;22.192;2022-11-15T12:43:44;35.93;;;13.97;;
68633;SDS011;55625;47.072;22.192;2022-11-15T12:52:03;14.95;;;5.05;;
68633;SDS011;55625;47.072;22.192;2022-11-15T13:02:44;18.38;;;6.72;;
68633;SDS011;55625;47.072;22.192;2022-11-15T13:12:55;31.33;;;15.07;;
68633;SDS011;55625;47.072;22.192;2022-11-15T13:18:18;32.95;;;12.75;;
68633;SDS011;55625;47.072;22.192;2022-11-15T13:21:22;20.93;;;8.97;;
68633;SDS011;55625;47.072;22.192;2022-11-15T13:24:12;13.10;;;5.47;;
68633;SDS011;55625;47.072;22.192;2022-11-15T13:26:41;21.60;;;7.20;;
68633;SDS011;55625;47.072;22.192;2022-11-15T13:29:17;20.88;;;7.20;;
68633;SDS011;55625;47.072;22.192;2022-11-15T13:31:45;19.38;;;7.47;;
68633;SDS011;55625;47.072;22.192;2022-11-15T13:37:00;15.43;;;8.30;;
68633;SDS011;55625;47.072;22.192;2022-11-15T13:39:31;14.48;;;7.22;;
68633;SDS011;55625;47.072;22.192;2022-11-15T13:41:59;16.05;;;8.75;;
68633;SDS011;55625;47.072;22.192;2022-11-15T13:44:32;18.33;;;6.97;;
68633;SDS011;55625;47.072;22.192;2022-11-15T13:47:02;17.87;;;8.87;;
68633;SDS011;55625;47.072;22.192;2022-11-15T13:49:39;22.77;;;7.68;;
68633;SDS011;55625;47.072;22.192;2022-11-15T13:52:06;24.60;;;7.53;;
68633;SDS011;55625;47.072;22.192;2022-11-15T13:54:43;21.42;;;7.90;;
68633;SDS011;55625;47.072;22.192;2022-11-15T13:57:21;18.73;;;8.18;;
68633;SDS011;55625;47.072;22.192;2022-11-15T13:59:53;29.67;;;13.57;;
68633;SDS011;55625;47.072;22.192;2022-11-15T14:02:33;33.38;;;13.55;;
68633;SDS011;55625;47.072;22.192;2022-11-15T14:05:11;32.58;;;17.75;;
68633;SDS011;55625;47.072;22.192;2022-11-15T14:08:02;31.67;;;13.88;;
68633;SDS011;55625;47.072;22.192;2022-11-15T14:10:47;23.77;;;12.32;;
68633;SDS011;55625;47.072;22.192;2022-11-15T14:13:29;14.90;;;7.83;;
68633;SDS011;55625;47.072;22.192;2022-11-15T14:16:15;20.67;;;9.77;;
68633;SDS011;55625;47.072;22.192;2022-11-15T14:21:10;31.20;;;14.70;;
68633;SDS011;55625;47.072;22.192;2022-11-15T14:23:37;36.47;;;13.60;;
68633;SDS011;55625;47.072;22.192;2022-11-15T14:26:03;37.38;;;14.02;;
68633;SDS011;55625;47.072;22.192;2022-11-15T14:28:30;31.25;;;13.52;;
68633;SDS011;55625;47.072;22.192;2022-11-15T14:31:01;34.25;;;14.45;;
68633;SDS011;55625;47.072;22.192;2022-11-15T14:33:40;48.93;;;18.53;;
68633;SDS011;55625;47.072;22.192;2022-11-15T14:36:10;57.65;;;20.27;;
68633;SDS011;55625;47.072;22.192;2022-11-15T14:38:45;27.63;;;13.43;;
68633;SDS011;55625;47.072;22.192;2022-11-15T14:43:47;26.98;;;11.48;;
68633;SDS011;55625;47.072;22.192;2022-11-15T14:46:14;39.70;;;12.43;;
68633;SDS011;55625;47.072;22.192;2022-11-15T14:48:39;19.98;;;9.60;;
68633;SDS011;55625;47.072;22.192;2022-11-15T14:51:12;23.10;;;10.85;;
68633;SDS011;55625;47.072;22.192;2022-11-15T14:53:41;18.52;;;8.88;;
68633;SDS011;55625;47.072;22.192;2022-11-15T14:56:08;24.03;;;10.53;;
68633;SDS011;55625;47.072;22.192;2022-11-15T14:58:35;55.08;;;17.88;;
68633;SDS011;55625;47.072;22.192;2022-11-15T15:01:17;54.33;;;20.08;;
68633;SDS011;55625;47.072;22.192;2022-11-15T15:03:48;48.00;;;19.50;;
68633;SDS011;55625;47.072;22.192;2022-11-15T15:06:16;114.38;;;34.95;;
68633;SDS011;55625;47.072;22.192;2022-11-15T15:08:43;488.70;;;174.70;;
68633;SDS011;55625;47.072;22.192;2022-11-15T15:11:11;357.90;;;111.35;;
68633;SDS011;55625;47.072;22.192;2022-11-15T15:13:49;165.02;;;50.65;;
68633;SDS011;55625;47.072;22.192;2022-11-15T15:16:15;40.90;;;16.83;;
68633;SDS011;55625;47.072;22.192;2022-11-15T15:18:41;24.07;;;9.40;;
68633;SDS011;55625;47.072;22.192;2022-11-15T15:21:41;26.65;;;11.52;;
68633;SDS011;55625;47.072;22.192;2022-11-15T15:24:00;20.30;;;9.32;;
68633;SDS011;55625;47.072;22.192;2022-11-15T15:26:26;19.92;;;9.18;;
68633;SDS011;55625;47.072;22.192;2022-11-15T15:28:52;28.70;;;9.43;;
68633;SDS011;55625;47.072;22.192;2022-11-15T15:31:18;27.70;;;10.20;;
68633;SDS011;55625;47.072;22.192;2022-11-15T15:33:44;26.70;;;11.95;;
68633;SDS011;55625;47.072;22.192;2022-11-15T15:36:10;28.87;;;14.50;;
68633;SDS011;55625;47.072;22.192;2022-11-15T15:38:38;38.13;;;16.95;;
68633;SDS011;55625;47.072;22.192;2022-11-15T15:41:12;32.17;;;14.98;;
68633;SDS011;55625;47.072;22.192;2022-11-15T15:43:40;39.55;;;18.08;;
68633;SDS011;55625;47.072;22.192;2022-11-15T15:46:13;29.60;;;11.82;;
68633;SDS011;55625;47.072;22.192;2022-11-15T15:48:41;32.10;;;13.10;;
68633;SDS011;55625;47.072;22.192;2022-11-15T15:51:07;35.58;;;16.92;;
68633;SDS011;55625;47.072;22.192;2022-11-15T15:53:33;43.75;;;21.58;;
68633;SDS011;55625;47.072;22.192;2022-11-15T15:56:00;43.17;;;20.20;;
68633;SDS011;55625;47.072;22.192;2022-11-15T15:58:26;47.67;;;20.15;;
68633;SDS011;55625;47.072;22.192;2022-11-15T16:00:52;43.80;;;21.80;;
68633;SDS011;55625;47.072;22.192;2022-11-15T16:03:17;45.45;;;21.13;;
68633;SDS011;55625;47.072;22.192;2022-11-15T16:05:43;36.60;;;15.07;;
68633;SDS011;55625;47.072;22.192;2022-11-15T16:08:16;38.93;;;17.17;;
68633;SDS011;55625;47.072;22.192;2022-11-15T16:10:47;46.30;;;21.05;;
68633;SDS011;55625;47.072;22.192;2022-11-15T16:13:14;45.30;;;22.00;;
68633;SDS011;55625;47.072;22.192;2022-11-15T16:15:40;41.83;;;18.80;;
68633;SDS011;55625;47.072;22.192;2022-11-15T16:18:14;45.47;;;19.88;;
68633;SDS011;55625;47.072;22.192;2022-11-15T16:20:43;47.23;;;22.10;;
68633;SDS011;55625;47.072;22.192;2022-11-15T16:23:15;87.55;;;37.13;;
68633;SDS011;55625;47.072;22.192;2022-11-15T16:28:24;47.83;;;21.35;;
68633;SDS011;55625;47.072;22.192;2022-11-15T16:31:03;58.88;;;25.20;;
68633;SDS011;55625;47.072;22.192;2022-11-15T16:33:36;49.23;;;21.50;;
68633;SDS011;55625;47.072;22.192;2022-11-15T16:36:03;41.55;;;18.70;;
68633;SDS011;55625;47.072;22.192;2022-11-15T16:38:31;38.22;;;20.13;;
68633;SDS011;55625;47.072;22.192;2022-11-15T16:40:57;41.03;;;19.35;;
68633;SDS011;55625;47.072;22.192;2022-11-15T16:43:23;57.57;;;18.97;;
68633;SDS011;55625;47.072;22.192;2022-11-15T16:45:49;153.13;;;45.92;;
68633;SDS011;55625;47.072;22.192;2022-11-15T16:48:22;235.15;;;74.20;;
68633;SDS011;55625;47.072;22.192;2022-11-15T16:50:54;195.23;;;65.85;;
68633;SDS011;55625;47.072;22.192;2022-11-15T16:53:22;158.80;;;53.10;;
68633;SDS011;55625;47.072;22.192;2022-11-15T16:55:50;113.40;;;43.67;;
68633;SDS011;55625;47.072;22.192;2022-11-15T16:58:16;73.57;;;27.73;;
68633;SDS011;55625;47.072;22.192;2022-11-15T17:00:42;70.75;;;23.58;;
68633;SDS011;55625;47.072;22.192;2022-11-15T17:03:07;43.97;;;20.23;;
68633;SDS011;55625;47.072;22.192;2022-11-15T17:05:33;36.35;;;14.25;;
68633;SDS011;55625;47.072;22.192;2022-11-15T17:07:59;30.80;;;15.93;;
68633;SDS011;55625;47.072;22.192;2022-11-15T17:10:25;29.07;;;12.27;;
68633;SDS011;55625;47.072;22.192;2022-11-15T17:12:52;41.45;;;12.75;;